KSPG/SPG METAR and TAF weather

Enter ICAO airport designator
Station Type Date Time Source
KSPG METAR 2022/11/30 10:53 UTC NOAA

KSPG 301053Z AUTO 17010KT 10SM CLR 20/18 A3004 RMK AO2 SLP171 T02000183


Station Type Date Time Source
KSPG Decoded METAR 2022/11/30 10:53 UTC NOAA

ST PETERSBURG WHITTED AIRPORT , FL, United States (KSPG) 27-46N 082-38W 2M
Nov 30, 2022 - 05:53 AM EST / 2022.11.30 1053 UTC
Wind: from the S (170 degrees) at 12 MPH (10 KT):0
Visibility: 10 mile(s):0
Sky conditions: clear
Temperature: 68.0 F (20.0 C)
Dew Point: 64.9 F (18.3 C)
Relative Humidity: 89%
Pressure (altimeter): 30.04 in. Hg (1017 hPa)
ob: KSPG 301053Z AUTO 17010KT 10SM CLR 20/18 A3004 RMK AO2 SLP171 T02000183
cycle: 11

Station Type Date Time Source
KSPG TAF UTC NOAA

Error!

Example: see airport list